createdAt,value
2022-12-17T00:00:38.141Z,66.81
2022-12-17T00:03:24.433Z,64.79
2022-12-17T00:06:10.707Z,62.45
2022-12-17T00:08:56.556Z,63.96
2022-12-17T00:11:42.465Z,66.30
2022-12-17T00:14:28.705Z,63.33
2022-12-17T00:17:15.659Z,63.16
2022-12-17T00:20:01.823Z,63.30
2022-12-17T00:22:47.685Z,62.71
2022-12-17T00:25:33.549Z,62.59
2022-12-17T00:28:19.535Z,64.12
2022-12-17T00:31:11.858Z,62.90
2022-12-17T00:33:57.478Z,63.61
2022-12-17T00:36:43.423Z,61.37
2022-12-17T00:39:29.048Z,63.15
2022-12-17T00:42:15.079Z,63.73
2022-12-17T00:45:02.626Z,65.71
2022-12-17T00:47:49.217Z,63.53
2022-12-17T00:50:36.305Z,65.09
2022-12-17T00:53:22.214Z,62.66
2022-12-17T00:56:07.944Z,63.56
2022-12-17T00:58:54.742Z,64.34
2022-12-17T01:01:40.866Z,65.68
2022-12-17T01:04:26.985Z,65.12
2022-12-17T01:07:12.737Z,65.59
2022-12-17T01:09:58.756Z,66.67
2022-12-17T01:12:44.616Z,65.18
2022-12-17T01:15:30.867Z,65.87
2022-12-17T01:18:16.782Z,67.13
2022-12-17T01:21:02.629Z,66.09
2022-12-17T01:23:49.136Z,66.49
2022-12-17T01:26:36.030Z,65.95
2022-12-17T01:29:21.817Z,65.60
2022-12-17T01:32:08.144Z,65.57
2022-12-17T01:34:53.803Z,66.94
2022-12-17T01:37:39.809Z,65.57
2022-12-17T01:40:27.936Z,66.38
2022-12-17T01:43:13.978Z,65.50
2022-12-17T01:46:02.475Z,64.76
2022-12-17T01:48:49.456Z,64.40
2022-12-17T01:51:35.308Z,64.93
2022-12-17T01:54:21.630Z,66.63
2022-12-17T01:57:07.642Z,65.73
2022-12-17T02:00:02.945Z,65.87
2022-12-17T02:02:59.625Z,66.03
2022-12-17T02:06:15.716Z,64.27
2022-12-17T02:09:16.969Z,64.40
2022-12-17T02:12:20.210Z,64.58
2022-12-17T02:15:15.234Z,63.03
2022-12-17T02:18:03.530Z,63.89
2022-12-17T02:20:50.626Z,65.22
2022-12-17T02:23:37.234Z,63.56
2022-12-17T02:26:33.884Z,62.23
2022-12-17T02:29:20.596Z,63.06
2022-12-17T02:32:06.669Z,61.48
2022-12-17T02:35:01.414Z,63.56
2022-12-17T02:37:47.860Z,62.00
2022-12-17T02:40:33.974Z,61.21
2022-12-17T02:43:19.945Z,62.25
2022-12-17T02:46:13.948Z,64.98
2022-12-17T02:49:00.005Z,64.42
2022-12-17T02:51:47.265Z,60.93
2022-12-17T02:54:33.067Z,62.35
2022-12-17T02:57:19.334Z,63.78
2022-12-17T03:00:05.127Z,64.07
2022-12-17T03:02:51.694Z,63.69
2022-12-17T03:05:45.795Z,59.95
2022-12-17T03:08:32.559Z,61.75
2022-12-17T03:11:18.648Z,59.80
2022-12-17T03:14:04.715Z,59.12
2022-12-17T03:16:50.755Z,57.78
2022-12-17T03:19:36.917Z,57.46
2022-12-17T03:22:23.219Z,59.58
2022-12-17T03:25:09.010Z,56.55
2022-12-17T03:27:54.914Z,55.10
2022-12-17T03:30:45.692Z,57.13
2022-12-17T03:33:34.770Z,60.98
2022-12-17T03:36:21.189Z,62.68
2022-12-17T03:39:07.156Z,60.38
2022-12-17T03:41:53.643Z,60.12
2022-12-17T03:44:39.722Z,60.67
2022-12-17T03:47:25.469Z,60.72
2022-12-17T03:50:11.184Z,60.98
2022-12-17T03:52:57.236Z,62.75
2022-12-17T03:55:56.720Z,62.95
2022-12-17T03:58:42.917Z,60.15
2022-12-17T04:01:28.892Z,58.05
2022-12-17T04:04:15.155Z,60.19
2022-12-17T04:07:01.098Z,61.10
2022-12-17T04:09:47.012Z,60.38
2022-12-17T04:12:33.016Z,62.08
2022-12-17T04:15:19.173Z,64.26
2022-12-17T04:18:04.884Z,63.43
2022-12-17T04:20:51.038Z,61.73
2022-12-17T04:23:37.137Z,61.49
2022-12-17T04:26:23.256Z,63.92
2022-12-17T04:29:08.886Z,63.44
2022-12-17T04:31:54.835Z,62.36
2022-12-17T04:34:40.735Z,64.60
2022-12-17T04:37:34.372Z,62.86
2022-12-17T04:40:20.019Z,62.84
2022-12-17T04:43:05.951Z,62.58
2022-12-17T04:45:51.882Z,61.56
2022-12-17T04:48:38.019Z,63.85
2022-12-17T04:51:24.018Z,61.97
2022-12-17T04:54:10.248Z,61.39
2022-12-17T04:56:56.127Z,60.80
2022-12-17T04:59:42.258Z,61.93
2022-12-17T05:02:32.596Z,62.11
2022-12-17T05:05:18.590Z,62.00
2022-12-17T05:08:04.472Z,62.55
2022-12-17T05:10:50.764Z,61.68
2022-12-17T05:13:36.959Z,58.86
2022-12-17T05:16:23.440Z,59.81
2022-12-17T05:19:10.687Z,59.69
2022-12-17T05:21:56.688Z,58.35
2022-12-17T05:24:43.067Z,59.65
2022-12-17T05:27:29.108Z,60.81
2022-12-17T05:30:15.031Z,60.40
2022-12-17T05:33:01.453Z,61.07
2022-12-17T05:35:47.244Z,60.85
2022-12-17T05:38:33.234Z,60.19
2022-12-17T05:41:19.272Z,61.43
2022-12-17T05:44:05.522Z,60.16
2022-12-17T05:46:51.547Z,59.48
2022-12-17T05:49:37.849Z,58.67
2022-12-17T05:52:23.732Z,57.88
2022-12-17T05:55:09.657Z,58.08
2022-12-17T05:57:56.747Z,56.42
2022-12-17T06:00:42.880Z,59.26
2022-12-17T06:03:29.306Z,59.14
2022-12-17T06:06:16.432Z,58.77
2022-12-17T06:09:02.273Z,58.29
2022-12-17T06:11:48.244Z,58.75
2022-12-17T06:14:34.294Z,59.00
2022-12-17T06:17:20.336Z,61.10
2022-12-17T06:20:06.453Z,59.25
2022-12-17T06:22:52.048Z,59.11
2022-12-17T06:25:39.329Z,58.86
2022-12-17T06:28:25.003Z,58.55
2022-12-17T06:31:11.501Z,58.03
2022-12-17T06:33:57.668Z,57.63
2022-12-17T06:36:43.659Z,60.16
2022-12-17T06:39:30.390Z,61.94
2022-12-17T06:42:16.825Z,58.96
2022-12-17T06:45:02.650Z,60.60
2022-12-17T06:47:49.073Z,61.79
2022-12-17T06:50:35.000Z,61.99
2022-12-17T06:53:23.325Z,61.55
2022-12-17T06:56:09.312Z,62.91
2022-12-17T06:58:55.511Z,59.69
2022-12-17T07:01:41.571Z,60.06
2022-12-17T07:04:27.556Z,62.42
2022-12-17T07:07:13.118Z,61.17
2022-12-17T07:09:59.501Z,60.33
2022-12-17T07:12:45.491Z,60.57
2022-12-17T07:15:31.469Z,61.25
2022-12-17T07:18:18.228Z,61.32
2022-12-17T07:21:05.020Z,60.85
2022-12-17T07:23:50.817Z,59.53
2022-12-17T07:26:37.107Z,61.61
2022-12-17T07:29:23.027Z,61.92
2022-12-17T07:32:08.949Z,60.47
2022-12-17T07:34:54.762Z,60.55
2022-12-17T07:37:41.003Z,61.25
2022-12-17T07:40:28.689Z,61.53
2022-12-17T07:43:14.743Z,58.18
2022-12-17T07:46:00.262Z,58.81
2022-12-17T07:48:46.424Z,58.31
2022-12-17T07:51:32.371Z,60.66
2022-12-17T07:54:18.610Z,59.52
2022-12-17T07:57:04.480Z,58.75
2022-12-17T08:00:01.560Z,60.53
2022-12-17T08:02:47.661Z,59.04
2022-12-17T08:05:33.598Z,61.49
2022-12-17T08:08:26.022Z,59.80
2022-12-17T08:11:11.931Z,59.58
2022-12-17T08:13:57.869Z,61.39
2022-12-17T08:16:43.984Z,59.59
2022-12-17T08:19:29.716Z,59.02
2022-12-17T08:22:15.651Z,61.69
2022-12-17T08:25:01.603Z,59.70
2022-12-17T08:27:58.093Z,57.49
2022-12-17T08:30:43.783Z,55.68
2022-12-17T08:33:29.969Z,55.27
2022-12-17T08:36:15.854Z,56.29
2022-12-17T08:39:01.930Z,57.36
2022-12-17T08:41:54.034Z,59.13
2022-12-17T08:44:41.126Z,57.85
2022-12-17T08:47:27.075Z,58.12
2022-12-17T08:50:13.284Z,57.60
2022-12-17T08:52:59.443Z,58.20
2022-12-17T08:55:45.555Z,58.06
2022-12-17T08:58:33.265Z,58.92
2022-12-17T09:01:21.879Z,58.94
2022-12-17T09:04:07.551Z,59.23
2022-12-17T09:06:53.760Z,56.83
2022-12-17T09:09:39.356Z,60.25
2022-12-17T09:12:25.261Z,57.84
2022-12-17T09:15:11.045Z,58.12
2022-12-17T09:17:57.278Z,57.83
2022-12-17T09:20:43.139Z,58.42
2022-12-17T09:23:29.189Z,56.27
2022-12-17T09:26:15.498Z,55.45
2022-12-17T09:29:01.629Z,58.43
2022-12-17T09:31:48.420Z,56.49
2022-12-17T09:34:34.576Z,58.01
2022-12-17T09:37:21.096Z,56.87
2022-12-17T09:40:07.121Z,55.69
2022-12-17T09:43:11.792Z,58.76
2022-12-17T09:46:00.671Z,57.23
2022-12-17T09:48:48.050Z,58.71
2022-12-17T09:51:41.280Z,58.90
2022-12-17T09:54:31.723Z,59.35
2022-12-17T09:57:18.119Z,58.65
2022-12-17T10:00:04.153Z,59.02
2022-12-17T10:02:58.369Z,56.77
2022-12-17T10:06:05.746Z,56.80
2022-12-17T10:08:51.693Z,57.25
2022-12-17T10:11:45.730Z,56.69
2022-12-17T10:14:34.672Z,54.71
2022-12-17T10:17:20.950Z,54.98
2022-12-17T10:20:08.263Z,56.86
2022-12-17T10:23:04.219Z,55.30
2022-12-17T10:25:50.099Z,56.83
2022-12-17T10:28:37.939Z,56.73
2022-12-17T10:31:28.639Z,54.41
2022-12-17T10:34:15.505Z,55.34
2022-12-17T10:37:19.487Z,57.15
2022-12-17T10:40:15.772Z,57.17
2022-12-17T10:43:04.039Z,54.88
2022-12-17T10:45:51.749Z,55.76
2022-12-17T10:48:41.232Z,55.12
2022-12-17T10:51:39.411Z,53.55
2022-12-17T10:54:57.527Z,53.34
2022-12-17T10:57:50.900Z,53.55
2022-12-17T11:00:36.841Z,54.85
2022-12-17T11:03:23.538Z,53.23
2022-12-17T11:06:10.132Z,52.27
2022-12-17T11:08:57.808Z,54.88
2022-12-17T11:11:43.744Z,51.52
2022-12-17T11:14:29.965Z,52.58
2022-12-17T11:17:18.004Z,51.75
2022-12-17T11:20:50.507Z,48.81
2022-12-17T11:23:37.536Z,51.06
2022-12-17T11:26:28.562Z,51.92
2022-12-17T11:29:14.543Z,53.29
2022-12-17T11:32:19.823Z,53.73
2022-12-17T11:35:18.033Z,53.54
2022-12-17T11:38:07.917Z,54.07
2022-12-17T11:41:00.555Z,56.77
2022-12-17T11:43:55.931Z,56.60
2022-12-17T11:46:46.424Z,56.28
2022-12-17T11:49:45.333Z,55.81
2022-12-17T11:52:34.650Z,54.05
2022-12-17T11:55:24.370Z,55.34
2022-12-17T11:58:10.362Z,55.49
2022-12-17T12:01:15.689Z,54.33
2022-12-17T12:04:01.960Z,56.45
2022-12-17T12:06:53.720Z,56.07
2022-12-17T12:09:42.167Z,55.32
2022-12-17T12:12:38.041Z,55.27
2022-12-17T12:15:44.442Z,54.67
2022-12-17T12:18:44.258Z,56.06
2022-12-17T12:21:39.787Z,54.42
2022-12-17T12:24:41.504Z,54.16
2022-12-17T12:27:46.877Z,52.17
2022-12-17T12:30:36.782Z,51.75
2022-12-17T12:33:43.050Z,54.15
2022-12-17T12:36:29.351Z,55.19
2022-12-17T12:39:15.622Z,55.45
2022-12-17T12:42:03.981Z,56.30
2022-12-17T12:44:58.491Z,54.05
2022-12-17T12:47:47.376Z,55.85
2022-12-17T12:50:33.686Z,54.87
2022-12-17T12:53:19.916Z,55.73
2022-12-17T12:56:05.793Z,53.05
2022-12-17T12:58:52.707Z,53.38
2022-12-17T13:01:39.275Z,55.18
2022-12-17T13:04:44.172Z,55.38
2022-12-17T13:07:37.620Z,54.89
2022-12-17T13:10:16.151Z,55.36
2022-12-17T13:12:44.954Z,54.84
2022-12-17T13:15:35.435Z,54.05
2022-12-17T13:18:21.097Z,56.14
2022-12-17T13:21:23.679Z,55.36
2022-12-17T13:23:51.320Z,54.30
2022-12-17T13:26:23.132Z,51.18
2022-12-17T13:28:59.674Z,54.57
2022-12-17T13:31:47.104Z,55.04
2022-12-17T13:34:23.522Z,55.04
2022-12-17T13:36:53.537Z,55.04
2022-12-17T13:39:47.252Z,54.23
2022-12-17T13:42:34.624Z,53.95
2022-12-17T13:45:02.042Z,53.97
2022-12-17T13:47:30.866Z,54.19
2022-12-17T13:52:47.736Z,54.67
2022-12-17T13:55:19.540Z,53.59
2022-12-17T13:57:46.854Z,54.62
2022-12-17T14:00:19.021Z,55.63
2022-12-17T14:02:46.748Z,54.67
2022-12-17T14:05:24.068Z,54.19
2022-12-17T14:07:51.626Z,52.76
2022-12-17T14:10:18.852Z,53.33
2022-12-17T14:12:46.123Z,53.39
2022-12-17T14:15:22.381Z,53.14
2022-12-17T14:17:49.534Z,54.24
2022-12-17T14:20:18.022Z,52.99
2022-12-17T14:22:51.270Z,54.19
2022-12-17T14:25:18.931Z,55.30
2022-12-17T14:27:54.629Z,54.79
2022-12-17T14:30:24.058Z,55.82
2022-12-17T14:32:51.233Z,55.18
2022-12-17T14:35:31.594Z,56.11
2022-12-17T14:37:59.019Z,54.39
2022-12-17T14:40:26.342Z,52.97
2022-12-17T14:42:54.039Z,53.24
2022-12-17T14:45:22.919Z,52.19
2022-12-17T14:48:00.174Z,55.64
2022-12-17T14:50:29.409Z,52.66
2022-12-17T14:52:57.715Z,53.94
2022-12-17T14:55:35.688Z,54.58
2022-12-17T14:58:07.859Z,55.65
2022-12-17T15:00:37.205Z,54.87
2022-12-17T15:03:05.644Z,54.45
2022-12-17T15:05:33.027Z,53.09
2022-12-17T15:08:00.228Z,55.96
2022-12-17T15:10:27.692Z,54.11
2022-12-17T15:12:54.817Z,53.73
2022-12-17T15:15:22.061Z,50.59
2022-12-17T15:17:50.478Z,50.86
2022-12-17T15:20:18.247Z,54.97
2022-12-17T15:22:45.764Z,52.47
2022-12-17T15:25:14.049Z,52.66
2022-12-17T15:27:41.410Z,55.09
2022-12-17T15:30:10.065Z,55.75
2022-12-17T15:32:37.495Z,56.66
2022-12-17T15:35:04.962Z,57.22
2022-12-17T15:37:32.119Z,58.20
2022-12-17T15:39:59.565Z,56.14
2022-12-17T15:42:45.521Z,56.21
2022-12-17T15:45:13.337Z,58.27
2022-12-17T15:47:40.803Z,57.15
2022-12-17T15:50:08.604Z,57.32
2022-12-17T15:52:36.115Z,56.43
2022-12-17T15:55:03.494Z,55.25
2022-12-17T15:57:30.987Z,54.01
2022-12-17T15:59:58.825Z,55.12
2022-12-17T16:02:26.289Z,55.50
2022-12-17T16:04:53.924Z,55.69
2022-12-17T16:07:21.799Z,56.72
2022-12-17T16:09:50.730Z,56.73
2022-12-17T16:12:18.512Z,54.59
2022-12-17T16:14:45.827Z,55.65
2022-12-17T16:17:13.276Z,55.60
2022-12-17T16:19:40.895Z,58.19
2022-12-17T16:22:08.069Z,57.75
2022-12-17T16:24:35.320Z,58.32
2022-12-17T16:27:04.782Z,56.69
2022-12-17T16:29:32.523Z,54.70
2022-12-17T16:32:02.584Z,56.47
2022-12-17T16:34:30.199Z,57.81
2022-12-17T16:36:57.702Z,58.75
2022-12-17T16:39:28.233Z,58.02
2022-12-17T16:41:56.015Z,58.46
2022-12-17T16:44:23.290Z,58.57
2022-12-17T16:46:52.214Z,57.73
2022-12-17T16:49:20.978Z,57.87
2022-12-17T16:51:50.255Z,56.04
2022-12-17T16:54:18.664Z,56.11
2022-12-17T16:56:46.790Z,56.76
2022-12-17T16:59:14.543Z,56.58
2022-12-17T17:01:42.592Z,58.85
2022-12-17T17:04:10.339Z,57.23
2022-12-17T17:06:38.450Z,56.13
2022-12-17T17:09:05.657Z,55.84
2022-12-17T17:11:33.096Z,54.57
2022-12-17T17:14:00.258Z,55.60
2022-12-17T17:16:28.969Z,54.57
2022-12-17T17:18:56.483Z,57.41
2022-12-17T17:21:24.774Z,58.61
2022-12-17T17:23:54.010Z,57.17
2022-12-17T17:26:25.065Z,57.22
2022-12-17T17:28:52.333Z,54.88
2022-12-17T17:31:19.716Z,54.88
2022-12-17T17:33:49.328Z,58.06
2022-12-17T17:36:21.165Z,57.15
2022-12-17T17:38:48.966Z,55.48
2022-12-17T17:41:17.645Z,55.02
2022-12-17T17:43:45.561Z,57.52
2022-12-17T17:46:16.774Z,56.29
2022-12-17T17:48:44.668Z,57.53
2022-12-17T17:51:13.199Z,57.00
2022-12-17T17:53:41.389Z,57.33
2022-12-17T17:56:14.943Z,54.78
2022-12-17T17:58:43.352Z,57.84
2022-12-17T18:01:11.180Z,56.57
2022-12-17T18:03:39.334Z,56.76
2022-12-17T18:06:07.416Z,56.29
2022-12-17T18:08:35.388Z,55.48
2022-12-17T18:11:06.452Z,53.01
2022-12-17T18:13:52.625Z,55.26
2022-12-17T18:16:20.606Z,55.38
2022-12-17T18:18:48.051Z,52.81
2022-12-17T18:21:16.351Z,54.77
2022-12-17T18:23:44.139Z,54.65
2022-12-17T18:26:18.884Z,51.85
2022-12-17T18:28:47.360Z,52.14
2022-12-17T18:31:24.304Z,52.12
2022-12-17T18:33:58.562Z,52.87
2022-12-17T18:36:35.555Z,53.52
2022-12-17T18:39:05.319Z,53.46
2022-12-17T18:41:51.214Z,54.25
2022-12-17T18:44:19.131Z,54.39
2022-12-17T18:46:46.720Z,54.46
2022-12-17T18:49:14.466Z,53.43
2022-12-17T18:51:43.087Z,51.54
2022-12-17T18:54:18.404Z,50.48
2022-12-17T18:57:00.835Z,53.68
2022-12-17T18:59:29.496Z,53.51
2022-12-17T19:01:57.640Z,53.66
2022-12-17T19:04:25.311Z,51.33
2022-12-17T19:06:53.728Z,51.90
2022-12-17T19:09:23.127Z,52.73
2022-12-17T19:11:50.563Z,54.32
2022-12-17T19:14:19.011Z,51.19
2022-12-17T19:16:47.884Z,52.31
2022-12-17T19:19:15.701Z,48.70
2022-12-17T19:21:43.854Z,51.17
2022-12-17T19:24:13.694Z,49.68
2022-12-17T19:26:41.494Z,49.87
2022-12-17T19:29:10.669Z,51.33
2022-12-17T19:31:38.893Z,49.09
2022-12-17T19:34:06.949Z,48.42
2022-12-17T19:36:35.009Z,52.84
2022-12-17T19:39:03.807Z,51.62
2022-12-17T19:41:32.915Z,51.64
2022-12-17T19:44:04.295Z,52.17
2022-12-17T19:46:32.901Z,52.46
2022-12-17T19:49:00.726Z,52.57
2022-12-17T19:51:28.643Z,52.14
2022-12-17T19:53:56.729Z,53.44
2022-12-17T19:56:27.942Z,52.92
2022-12-17T19:58:57.005Z,52.31
2022-12-17T20:01:25.709Z,54.94
2022-12-17T20:04:03.340Z,55.56
2022-12-17T20:06:31.662Z,53.85
2022-12-17T20:08:59.238Z,53.23
2022-12-17T20:11:33.334Z,55.17
2022-12-17T20:14:23.697Z,55.30
2022-12-17T20:16:52.896Z,56.11
2022-12-17T20:19:21.607Z,57.69
2022-12-17T20:21:50.735Z,55.37
2022-12-17T20:24:21.259Z,53.90
2022-12-17T20:26:52.272Z,53.21
2022-12-17T20:29:21.891Z,51.20
2022-12-17T20:31:50.262Z,53.31
2022-12-17T20:34:19.250Z,52.76
2022-12-17T20:36:48.561Z,53.10
2022-12-17T20:39:16.220Z,53.41
2022-12-17T20:41:44.472Z,53.48
2022-12-17T20:44:12.962Z,54.73
2022-12-17T20:46:44.190Z,54.04
2022-12-17T20:49:12.236Z,55.25
2022-12-17T20:51:39.852Z,53.28
2022-12-17T20:54:08.796Z,53.27
2022-12-17T20:56:37.006Z,52.31
2022-12-17T20:59:05.472Z,51.83
2022-12-17T21:01:33.803Z,52.43
2022-12-17T21:04:02.090Z,52.27
2022-12-17T21:06:32.387Z,52.14
2022-12-17T21:08:59.976Z,50.79
2022-12-17T21:11:28.819Z,53.60
2022-12-17T21:13:56.627Z,53.10
2022-12-17T21:16:25.434Z,50.52
2022-12-17T21:18:59.611Z,51.78
2022-12-17T21:21:27.837Z,52.40
2022-12-17T21:23:57.483Z,52.22
2022-12-17T21:26:25.923Z,53.10
2022-12-17T21:28:54.921Z,54.69
2022-12-17T21:31:28.184Z,51.95
2022-12-17T21:33:57.110Z,53.02
2022-12-17T21:36:26.368Z,55.33
2022-12-17T21:38:53.839Z,54.05
2022-12-17T21:41:25.262Z,52.55
2022-12-17T21:43:56.180Z,53.62
2022-12-17T21:46:23.922Z,52.51
2022-12-17T21:48:52.807Z,54.79
2022-12-17T21:51:22.761Z,53.43
2022-12-17T21:53:57.250Z,54.73
2022-12-17T21:56:25.129Z,51.93
2022-12-17T21:58:56.698Z,52.52
2022-12-17T22:01:25.477Z,52.17
2022-12-17T22:03:54.463Z,52.84
2022-12-17T22:06:23.440Z,51.38
2022-12-17T22:08:58.656Z,50.40
2022-12-17T22:11:31.528Z,49.91
2022-12-17T22:14:20.391Z,52.48
2022-12-17T22:16:49.333Z,50.63
2022-12-17T22:19:22.479Z,51.96
2022-12-17T22:21:50.481Z,50.97
2022-12-17T22:24:18.883Z,49.53
2022-12-17T22:26:46.199Z,50.65
2022-12-17T22:29:38.022Z,51.63
2022-12-17T22:32:28.109Z,53.77
2022-12-17T22:36:13.508Z,53.51
2022-12-17T22:42:34.133Z,52.87
2022-12-17T22:44:29.672Z,53.95
2022-12-17T22:44:37.552Z,53.27
2022-12-17T22:46:18.154Z,55.96
2022-12-17T22:48:45.683Z,55.12
2022-12-17T22:51:21.358Z,54.86
2022-12-17T22:53:55.930Z,55.62
2022-12-17T22:56:29.000Z,55.67
2022-12-17T22:59:17.769Z,54.42
2022-12-17T23:01:45.093Z,54.71
2022-12-17T23:04:13.688Z,52.00
2022-12-17T23:06:41.233Z,53.57
2022-12-17T23:09:08.372Z,53.78
2022-12-17T23:11:35.784Z,52.71
2022-12-17T23:14:02.968Z,53.49
2022-12-17T23:16:30.545Z,54.03
2022-12-17T23:18:59.553Z,52.33
2022-12-17T23:21:26.764Z,53.18
2022-12-17T23:23:54.232Z,52.78
2022-12-17T23:26:41.943Z,54.05
2022-12-17T23:29:10.329Z,53.86
2022-12-17T23:31:42.916Z,52.50
2022-12-17T23:34:10.065Z,50.95
2022-12-17T23:36:37.203Z,52.82
2022-12-17T23:39:04.702Z,52.61
2022-12-17T23:41:31.978Z,51.30
2022-12-17T23:43:59.347Z,51.72
2022-12-17T23:46:27.589Z,50.14
2022-12-17T23:48:54.925Z,49.69
2022-12-17T23:51:22.445Z,48.94
2022-12-17T23:53:50.202Z,46.93
2022-12-17T23:56:20.974Z,45.70
2022-12-17T23:58:48.261Z,45.55
